Terminal Aerodrome Forecast
Issued by NWS Paducah, KY

Home | Current Version | Previous Version | Text Only | Print | Product List | Glossary On
Versions: 1 2 3 4 5 6 7 8 9 10 11 12 13 14 15 16 17
977
FTUS43 KPAH 112320
TAFPAH
TAF
KPAH 112320Z 1200/1224 25010G18KT P6SM SCT250
     FM120100 29012G19KT P6SM SCT050
     FM120300 30012G19KT P6SM SCT025 BKN050
     FM120600 32014G23KT P6SM BKN025
     FM121200 33015G24KT P6SM SCT025
     FM121600 32013G20KT P6SM SKC=

USA.gov is the U.S. government's official web portal to all federal, state and local government web resources and services.